Bodcau, Louisiana
Current Conditions -  °F | °C
As of 10:53 AM on Thursday 18 Dec 2014 (Local Time) from KDTN Reporting Station
Overcast Overcast  
Wind Chill: 44°   Ceiling: 1600
Heat Index: 47°   Visibility: 10mi
Dew Point: 43°   Wind: 6mph
Humidity: 86%   Direction: 110°ESE
Pressure: 30.18"   Gusts: NA
Location:  32.5391°N, 93.5257°W
Report Text: KDTN 181653Z 11005KT 10SM FEW009 OVC016 08/06 A3018 RMK AO2 SLP221 T00830061
Loading
Personal Weather Stations






























Interactive Weather Map New forecast layout! Learn more

10-Day Weather Forecast

Advertisements
Track Severe Weather on mobile